sensor_id;sensor_type;location;lat;lon;timestamp;temperature;humidity
10678;DHT22;5387;48.722;9.110;2023-02-13T00:00:02;0.00;99.90
10678;DHT22;5387;48.722;9.110;2023-02-13T00:02:30;-0.10;99.90
10678;DHT22;5387;48.722;9.110;2023-02-13T00:04:57;-0.10;99.90
10678;DHT22;5387;48.722;9.110;2023-02-13T00:07:24;-0.20;99.90
10678;DHT22;5387;48.722;9.110;2023-02-13T00:09:52;-0.20;99.90
10678;DHT22;5387;48.722;9.110;2023-02-13T00:12:19;-0.30;99.90
10678;DHT22;5387;48.722;9.110;2023-02-13T00:14:45;-0.30;99.90
10678;DHT22;5387;48.722;9.110;2023-02-13T00:17:12;-0.20;99.90
10678;DHT22;5387;48.722;9.110;2023-02-13T00:19:39;-0.20;99.90
10678;DHT22;5387;48.722;9.110;2023-02-13T00:22:06;-0.20;99.90
10678;DHT22;5387;48.722;9.110;2023-02-13T00:24:33;-0.20;99.90
10678;DHT22;5387;48.722;9.110;2023-02-13T00:27:01;-0.30;99.90
10678;DHT22;5387;48.722;9.110;2023-02-13T00:29:27;-0.40;99.90
10678;DHT22;5387;48.722;9.110;2023-02-13T00:31:54;-0.30;99.90
10678;DHT22;5387;48.722;9.110;2023-02-13T00:34:21;-0.30;99.90
10678;DHT22;5387;48.722;9.110;2023-02-13T00:36:48;-0.30;99.90
10678;DHT22;5387;48.722;9.110;2023-02-13T00:39:15;-0.30;99.90
10678;DHT22;5387;48.722;9.110;2023-02-13T00:41:41;-0.40;99.90
10678;DHT22;5387;48.722;9.110;2023-02-13T00:44:10;-0.30;99.90
10678;DHT22;5387;48.722;9.110;2023-02-13T00:46:37;-0.40;99.90
10678;DHT22;5387;48.722;9.110;2023-02-13T00:49:04;-0.30;99.90
10678;DHT22;5387;48.722;9.110;2023-02-13T00:51:31;-0.40;99.90
10678;DHT22;5387;48.722;9.110;2023-02-13T00:53:58;-0.40;99.90
10678;DHT22;5387;48.722;9.110;2023-02-13T00:56:25;-0.30;99.90
10678;DHT22;5387;48.722;9.110;2023-02-13T00:58:52;-0.40;99.90
10678;DHT22;5387;48.722;9.110;2023-02-13T01:01:20;-0.40;99.90
10678;DHT22;5387;48.722;9.110;2023-02-13T01:03:47;-0.40;99.90
10678;DHT22;5387;48.722;9.110;2023-02-13T01:06:14;-0.50;99.90
10678;DHT22;5387;48.722;9.110;2023-02-13T01:08:41;-0.40;99.90
10678;DHT22;5387;48.722;9.110;2023-02-13T01:11:08;-0.40;99.90
10678;DHT22;5387;48.722;9.110;2023-02-13T01:13:35;-0.50;99.90
10678;DHT22;5387;48.722;9.110;2023-02-13T01:16:02;-0.50;99.90
10678;DHT22;5387;48.722;9.110;2023-02-13T01:18:30;-0.50;99.90
10678;DHT22;5387;48.722;9.110;2023-02-13T01:20:59;-0.50;99.90
10678;DHT22;5387;48.722;9.110;2023-02-13T01:23:29;-0.50;99.90
10678;DHT22;5387;48.722;9.110;2023-02-13T01:25:56;-0.50;99.90
10678;DHT22;5387;48.722;9.110;2023-02-13T01:28:23;-0.60;99.90
10678;DHT22;5387;48.722;9.110;2023-02-13T01:30:53;-0.70;99.90
10678;DHT22;5387;48.722;9.110;2023-02-13T01:33:20;-0.70;99.90
10678;DHT22;5387;48.722;9.110;2023-02-13T01:35:48;-0.60;99.90
10678;DHT22;5387;48.722;9.110;2023-02-13T01:38:16;-0.60;99.90
10678;DHT22;5387;48.722;9.110;2023-02-13T01:40:47;-0.50;99.90
10678;DHT22;5387;48.722;9.110;2023-02-13T01:43:14;-0.50;99.90
10678;DHT22;5387;48.722;9.110;2023-02-13T01:45:41;-0.60;99.90
10678;DHT22;5387;48.722;9.110;2023-02-13T01:48:12;-0.60;99.90
10678;DHT22;5387;48.722;9.110;2023-02-13T01:50:42;-0.60;99.90
10678;DHT22;5387;48.722;9.110;2023-02-13T01:53:15;-0.70;99.90
10678;DHT22;5387;48.722;9.110;2023-02-13T01:55:47;-0.60;99.90
10678;DHT22;5387;48.722;9.110;2023-02-13T01:58:18;-0.60;99.90
10678;DHT22;5387;48.722;9.110;2023-02-13T02:00:46;-0.60;99.90
10678;DHT22;5387;48.722;9.110;2023-02-13T02:03:26;-0.60;99.90
10678;DHT22;5387;48.722;9.110;2023-02-13T02:05:55;-0.70;99.90
10678;DHT22;5387;48.722;9.110;2023-02-13T02:08:24;-0.70;99.90
10678;DHT22;5387;48.722;9.110;2023-02-13T02:10:52;-0.70;99.90
10678;DHT22;5387;48.722;9.110;2023-02-13T02:13:21;-0.70;99.90
10678;DHT22;5387;48.722;9.110;2023-02-13T02:15:49;-0.60;99.90
10678;DHT22;5387;48.722;9.110;2023-02-13T02:18:17;-0.70;99.90
10678;DHT22;5387;48.722;9.110;2023-02-13T02:21:22;-0.80;99.90
10678;DHT22;5387;48.722;9.110;2023-02-13T02:27:25;-0.80;99.90
10678;DHT22;5387;48.722;9.110;2023-02-13T02:33:16;-1.00;99.90
10678;DHT22;5387;48.722;9.110;2023-02-13T02:35:48;-0.90;99.90
10678;DHT22;5387;48.722;9.110;2023-02-13T02:38:25;-0.90;99.90
10678;DHT22;5387;48.722;9.110;2023-02-13T02:41:03;-0.90;99.90
10678;DHT22;5387;48.722;9.110;2023-02-13T02:44:01;-0.90;99.90
10678;DHT22;5387;48.722;9.110;2023-02-13T02:46:36;-1.00;99.90
10678;DHT22;5387;48.722;9.110;2023-02-13T02:49:06;-0.90;99.90
10678;DHT22;5387;48.722;9.110;2023-02-13T02:52:01;-0.90;99.90
10678;DHT22;5387;48.722;9.110;2023-02-13T02:54:33;-0.90;99.90
10678;DHT22;5387;48.722;9.110;2023-02-13T02:57:24;-0.80;99.90
10678;DHT22;5387;48.722;9.110;2023-02-13T03:00:14;-0.70;99.90
10678;DHT22;5387;48.722;9.110;2023-02-13T03:02:59;-0.70;99.90
10678;DHT22;5387;48.722;9.110;2023-02-13T03:05:45;-0.70;99.90
10678;DHT22;5387;48.722;9.110;2023-02-13T03:08:30;-0.70;99.90
10678;DHT22;5387;48.722;9.110;2023-02-13T03:11:29;-0.70;99.90
10678;DHT22;5387;48.722;9.110;2023-02-13T03:14:17;-0.70;99.90
10678;DHT22;5387;48.722;9.110;2023-02-13T03:16:46;-0.80;99.90
10678;DHT22;5387;48.722;9.110;2023-02-13T03:19:37;-0.70;99.90
10678;DHT22;5387;48.722;9.110;2023-02-13T03:22:34;-0.80;99.90
10678;DHT22;5387;48.722;9.110;2023-02-13T03:25:09;-0.80;99.90
10678;DHT22;5387;48.722;9.110;2023-02-13T03:27:43;-0.80;99.90
10678;DHT22;5387;48.722;9.110;2023-02-13T03:30:38;-0.80;99.90
10678;DHT22;5387;48.722;9.110;2023-02-13T03:33:22;-0.80;99.90
10678;DHT22;5387;48.722;9.110;2023-02-13T03:35:58;-0.70;99.90
10678;DHT22;5387;48.722;9.110;2023-02-13T03:38:51;-0.80;99.90
10678;DHT22;5387;48.722;9.110;2023-02-13T03:41:24;-0.70;99.90
10678;DHT22;5387;48.722;9.110;2023-02-13T03:44:03;-0.70;99.90
10678;DHT22;5387;48.722;9.110;2023-02-13T03:46:37;-0.70;99.90
10678;DHT22;5387;48.722;9.110;2023-02-13T03:49:09;-0.70;99.90
10678;DHT22;5387;48.722;9.110;2023-02-13T03:51:57;-0.80;99.90
10678;DHT22;5387;48.722;9.110;2023-02-13T03:54:34;-0.80;99.90
10678;DHT22;5387;48.722;9.110;2023-02-13T03:57:23;-0.80;99.90
10678;DHT22;5387;48.722;9.110;2023-02-13T04:00:10;-0.90;99.90
10678;DHT22;5387;48.722;9.110;2023-02-13T04:02:41;-0.90;99.90
10678;DHT22;5387;48.722;9.110;2023-02-13T04:05:13;-0.80;99.90
10678;DHT22;5387;48.722;9.110;2023-02-13T04:07:41;-0.90;99.90
10678;DHT22;5387;48.722;9.110;2023-02-13T04:10:12;-0.90;99.90
10678;DHT22;5387;48.722;9.110;2023-02-13T04:12:45;-0.80;99.90
10678;DHT22;5387;48.722;9.110;2023-02-13T04:15:15;-0.90;99.90
10678;DHT22;5387;48.722;9.110;2023-02-13T04:17:47;-0.90;99.90
10678;DHT22;5387;48.722;9.110;2023-02-13T04:20:15;-0.90;99.90
10678;DHT22;5387;48.722;9.110;2023-02-13T04:22:42;-0.90;99.90
10678;DHT22;5387;48.722;9.110;2023-02-13T04:25:12;-0.90;99.90
10678;DHT22;5387;48.722;9.110;2023-02-13T04:27:41;-0.90;99.90
10678;DHT22;5387;48.722;9.110;2023-02-13T04:30:08;-0.90;99.90
10678;DHT22;5387;48.722;9.110;2023-02-13T04:32:35;-0.80;99.90
10678;DHT22;5387;48.722;9.110;2023-02-13T04:35:02;-0.80;99.90
10678;DHT22;5387;48.722;9.110;2023-02-13T04:37:29;-0.90;99.90
10678;DHT22;5387;48.722;9.110;2023-02-13T04:39:56;-0.90;99.90
10678;DHT22;5387;48.722;9.110;2023-02-13T04:42:24;-0.80;99.90
10678;DHT22;5387;48.722;9.110;2023-02-13T04:44:51;-0.80;99.90
10678;DHT22;5387;48.722;9.110;2023-02-13T04:47:18;-0.80;99.90
10678;DHT22;5387;48.722;9.110;2023-02-13T04:49:44;-0.80;99.90
10678;DHT22;5387;48.722;9.110;2023-02-13T04:52:12;-0.80;99.90
10678;DHT22;5387;48.722;9.110;2023-02-13T04:54:39;-0.80;99.90
10678;DHT22;5387;48.722;9.110;2023-02-13T04:57:06;-0.80;99.90
10678;DHT22;5387;48.722;9.110;2023-02-13T04:59:34;-0.70;99.90
10678;DHT22;5387;48.722;9.110;2023-02-13T05:02:01;-0.80;99.90
10678;DHT22;5387;48.722;9.110;2023-02-13T05:04:28;-0.70;99.90
10678;DHT22;5387;48.722;9.110;2023-02-13T05:06:55;-1.00;99.90
10678;DHT22;5387;48.722;9.110;2023-02-13T05:09:21;-0.70;99.90
10678;DHT22;5387;48.722;9.110;2023-02-13T05:11:50;-0.70;99.90
10678;DHT22;5387;48.722;9.110;2023-02-13T05:14:17;-0.70;99.90
10678;DHT22;5387;48.722;9.110;2023-02-13T05:16:46;-0.70;99.90
10678;DHT22;5387;48.722;9.110;2023-02-13T05:19:14;-0.70;99.90
10678;DHT22;5387;48.722;9.110;2023-02-13T05:21:41;-0.80;99.90
10678;DHT22;5387;48.722;9.110;2023-02-13T05:24:25;-0.70;99.90
10678;DHT22;5387;48.722;9.110;2023-02-13T05:26:52;-0.70;99.90
10678;DHT22;5387;48.722;9.110;2023-02-13T05:29:19;-0.60;99.90
10678;DHT22;5387;48.722;9.110;2023-02-13T05:31:50;-0.70;99.90
10678;DHT22;5387;48.722;9.110;2023-02-13T05:34:18;-0.70;99.90
10678;DHT22;5387;48.722;9.110;2023-02-13T05:36:44;-0.70;99.90
10678;DHT22;5387;48.722;9.110;2023-02-13T05:39:11;-0.60;99.90
10678;DHT22;5387;48.722;9.110;2023-02-13T05:41:39;-0.70;99.90
10678;DHT22;5387;48.722;9.110;2023-02-13T05:44:06;-0.90;99.90
10678;DHT22;5387;48.722;9.110;2023-02-13T05:46:35;-0.80;99.90
10678;DHT22;5387;48.722;9.110;2023-02-13T05:49:05;-0.90;99.90
10678;DHT22;5387;48.722;9.110;2023-02-13T05:51:32;-0.80;99.90
10678;DHT22;5387;48.722;9.110;2023-02-13T05:53:59;-0.80;99.90
10678;DHT22;5387;48.722;9.110;2023-02-13T05:56:26;-0.80;99.90
10678;DHT22;5387;48.722;9.110;2023-02-13T05:58:53;-0.80;99.90
10678;DHT22;5387;48.722;9.110;2023-02-13T06:01:21;-0.80;99.90
10678;DHT22;5387;48.722;9.110;2023-02-13T06:03:48;-0.90;99.90
10678;DHT22;5387;48.722;9.110;2023-02-13T06:06:16;-0.90;99.90
10678;DHT22;5387;48.722;9.110;2023-02-13T06:08:44;-0.90;99.90
10678;DHT22;5387;48.722;9.110;2023-02-13T06:11:11;-0.90;99.90
10678;DHT22;5387;48.722;9.110;2023-02-13T06:13:38;-0.90;99.90
10678;DHT22;5387;48.722;9.110;2023-02-13T06:16:05;-0.90;99.90
10678;DHT22;5387;48.722;9.110;2023-02-13T06:18:32;-0.90;99.90
10678;DHT22;5387;48.722;9.110;2023-02-13T06:20:59;-1.00;99.90
10678;DHT22;5387;48.722;9.110;2023-02-13T06:23:28;-0.90;99.90
10678;DHT22;5387;48.722;9.110;2023-02-13T06:25:55;-0.90;99.90
10678;DHT22;5387;48.722;9.110;2023-02-13T06:28:21;-0.90;99.90
10678;DHT22;5387;48.722;9.110;2023-02-13T06:30:48;-0.90;99.90
10678;DHT22;5387;48.722;9.110;2023-02-13T06:33:15;-0.90;99.90
10678;DHT22;5387;48.722;9.110;2023-02-13T06:35:42;-0.80;99.90
10678;DHT22;5387;48.722;9.110;2023-02-13T06:38:08;-0.80;99.90
10678;DHT22;5387;48.722;9.110;2023-02-13T06:40:37;-0.90;99.90
10678;DHT22;5387;48.722;9.110;2023-02-13T06:43:03;-0.80;99.90
10678;DHT22;5387;48.722;9.110;2023-02-13T06:45:30;-0.80;99.90
10678;DHT22;5387;48.722;9.110;2023-02-13T06:47:57;-0.70;99.90
10678;DHT22;5387;48.722;9.110;2023-02-13T06:50:24;-0.70;99.90
10678;DHT22;5387;48.722;9.110;2023-02-13T06:52:51;-0.70;99.90
10678;DHT22;5387;48.722;9.110;2023-02-13T06:55:18;-0.70;99.90
10678;DHT22;5387;48.722;9.110;2023-02-13T06:57:46;-0.70;99.90
10678;DHT22;5387;48.722;9.110;2023-02-13T07:00:15;-0.70;99.90
10678;DHT22;5387;48.722;9.110;2023-02-13T07:02:43;-0.60;99.90
10678;DHT22;5387;48.722;9.110;2023-02-13T07:05:11;-0.60;99.90
10678;DHT22;5387;48.722;9.110;2023-02-13T07:07:39;-0.50;99.90
10678;DHT22;5387;48.722;9.110;2023-02-13T07:10:08;-0.50;99.90
10678;DHT22;5387;48.722;9.110;2023-02-13T07:12:36;-0.50;99.90
10678;DHT22;5387;48.722;9.110;2023-02-13T07:15:05;-0.30;99.90
10678;DHT22;5387;48.722;9.110;2023-02-13T07:17:32;-0.30;99.90
10678;DHT22;5387;48.722;9.110;2023-02-13T07:19:59;-0.20;99.90
10678;DHT22;5387;48.722;9.110;2023-02-13T07:22:26;-0.20;99.90
10678;DHT22;5387;48.722;9.110;2023-02-13T07:24:53;0.00;99.90
10678;DHT22;5387;48.722;9.110;2023-02-13T07:27:19;0.10;99.90
10678;DHT22;5387;48.722;9.110;2023-02-13T07:29:46;0.20;99.90
10678;DHT22;5387;48.722;9.110;2023-02-13T07:32:14;0.30;99.90
10678;DHT22;5387;48.722;9.110;2023-02-13T07:34:41;0.40;99.90
10678;DHT22;5387;48.722;9.110;2023-02-13T07:37:08;0.50;99.90
10678;DHT22;5387;48.722;9.110;2023-02-13T07:39:35;0.50;99.90
10678;DHT22;5387;48.722;9.110;2023-02-13T07:42:03;0.60;99.90
10678;DHT22;5387;48.722;9.110;2023-02-13T07:44:30;0.70;99.90
10678;DHT22;5387;48.722;9.110;2023-02-13T07:46:57;0.90;99.90
10678;DHT22;5387;48.722;9.110;2023-02-13T07:49:26;1.10;99.90
10678;DHT22;5387;48.722;9.110;2023-02-13T07:51:55;1.10;99.90
10678;DHT22;5387;48.722;9.110;2023-02-13T07:54:22;1.20;99.90
10678;DHT22;5387;48.722;9.110;2023-02-13T07:56:49;1.30;99.90
10678;DHT22;5387;48.722;9.110;2023-02-13T07:59:16;1.40;99.90
10678;DHT22;5387;48.722;9.110;2023-02-13T08:01:42;1.60;99.90
10678;DHT22;5387;48.722;9.110;2023-02-13T08:04:09;1.70;99.90
10678;DHT22;5387;48.722;9.110;2023-02-13T08:06:39;1.80;99.90
10678;DHT22;5387;48.722;9.110;2023-02-13T08:09:06;1.90;99.90
10678;DHT22;5387;48.722;9.110;2023-02-13T08:11:51;2.10;99.90
10678;DHT22;5387;48.722;9.110;2023-02-13T08:14:22;2.20;99.90
10678;DHT22;5387;48.722;9.110;2023-02-13T08:16:50;2.20;99.90
10678;DHT22;5387;48.722;9.110;2023-02-13T08:19:17;2.30;99.90
10678;DHT22;5387;48.722;9.110;2023-02-13T08:21:45;2.30;99.90
10678;DHT22;5387;48.722;9.110;2023-02-13T08:24:12;2.50;99.90
10678;DHT22;5387;48.722;9.110;2023-02-13T08:26:39;2.60;99.90
10678;DHT22;5387;48.722;9.110;2023-02-13T08:29:06;2.80;99.90
10678;DHT22;5387;48.722;9.110;2023-02-13T08:31:33;2.90;99.90
10678;DHT22;5387;48.722;9.110;2023-02-13T08:34:00;3.00;99.90
10678;DHT22;5387;48.722;9.110;2023-02-13T08:36:27;2.80;99.90
10678;DHT22;5387;48.722;9.110;2023-02-13T08:38:55;3.00;99.90
10678;DHT22;5387;48.722;9.110;2023-02-13T08:41:22;3.30;99.90
10678;DHT22;5387;48.722;9.110;2023-02-13T08:43:49;3.20;99.90
10678;DHT22;5387;48.722;9.110;2023-02-13T08:46:16;3.20;99.90
10678;DHT22;5387;48.722;9.110;2023-02-13T08:48:43;3.00;99.90
10678;DHT22;5387;48.722;9.110;2023-02-13T08:51:11;3.10;99.90
10678;DHT22;5387;48.722;9.110;2023-02-13T08:53:39;3.10;99.90
10678;DHT22;5387;48.722;9.110;2023-02-13T08:56:08;3.20;99.90
10678;DHT22;5387;48.722;9.110;2023-02-13T08:58:35;3.30;99.90
10678;DHT22;5387;48.722;9.110;2023-02-13T09:01:04;3.40;99.90
10678;DHT22;5387;48.722;9.110;2023-02-13T09:03:31;3.50;99.90
10678;DHT22;5387;48.722;9.110;2023-02-13T09:05:58;3.60;99.90
10678;DHT22;5387;48.722;9.110;2023-02-13T09:08:25;3.60;99.90
10678;DHT22;5387;48.722;9.110;2023-02-13T09:10:56;3.40;99.90
10678;DHT22;5387;48.722;9.110;2023-02-13T09:13:26;3.60;99.90
10678;DHT22;5387;48.722;9.110;2023-02-13T09:15:53;3.60;99.90
10678;DHT22;5387;48.722;9.110;2023-02-13T09:18:19;3.70;99.90
10678;DHT22;5387;48.722;9.110;2023-02-13T09:20:46;3.70;99.90
10678;DHT22;5387;48.722;9.110;2023-02-13T09:23:13;3.60;99.90
10678;DHT22;5387;48.722;9.110;2023-02-13T09:25:40;3.60;99.90
10678;DHT22;5387;48.722;9.110;2023-02-13T09:28:07;3.70;99.90
10678;DHT22;5387;48.722;9.110;2023-02-13T09:30:35;3.70;99.90
10678;DHT22;5387;48.722;9.110;2023-02-13T09:33:02;3.60;99.90
10678;DHT22;5387;48.722;9.110;2023-02-13T09:35:28;3.70;99.90
10678;DHT22;5387;48.722;9.110;2023-02-13T09:37:55;3.50;99.90
10678;DHT22;5387;48.722;9.110;2023-02-13T09:40:25;3.50;99.90
10678;DHT22;5387;48.722;9.110;2023-02-13T09:43:00;3.70;99.90
10678;DHT22;5387;48.722;9.110;2023-02-13T09:45:29;3.80;99.90
10678;DHT22;5387;48.722;9.110;2023-02-13T09:47:58;4.10;99.90
10678;DHT22;5387;48.722;9.110;2023-02-13T09:50:28;4.00;99.90
10678;DHT22;5387;48.722;9.110;2023-02-13T09:52:58;4.10;99.90
10678;DHT22;5387;48.722;9.110;2023-02-13T09:55:30;4.30;99.90
10678;DHT22;5387;48.722;9.110;2023-02-13T09:58:07;4.50;99.90
10678;DHT22;5387;48.722;9.110;2023-02-13T10:00:38;4.50;99.90
10678;DHT22;5387;48.722;9.110;2023-02-13T10:03:17;4.80;99.90
10678;DHT22;5387;48.722;9.110;2023-02-13T10:05:55;5.00;99.90
10678;DHT22;5387;48.722;9.110;2023-02-13T10:08:37;5.30;99.90
10678;DHT22;5387;48.722;9.110;2023-02-13T10:11:22;5.30;99.90
10678;DHT22;5387;48.722;9.110;2023-02-13T10:14:01;5.30;99.90
10678;DHT22;5387;48.722;9.110;2023-02-13T10:16:35;5.30;99.90
10678;DHT22;5387;48.722;9.110;2023-02-13T10:19:13;5.30;99.90
10678;DHT22;5387;48.722;9.110;2023-02-13T10:21:46;5.60;99.90
10678;DHT22;5387;48.722;9.110;2023-02-13T10:24:23;5.70;99.90
10678;DHT22;5387;48.722;9.110;2023-02-13T10:26:53;5.90;99.90
10678;DHT22;5387;48.722;9.110;2023-02-13T10:29:24;6.10;99.90
10678;DHT22;5387;48.722;9.110;2023-02-13T10:32:17;6.20;99.90
10678;DHT22;5387;48.722;9.110;2023-02-13T10:34:49;6.20;99.90
10678;DHT22;5387;48.722;9.110;2023-02-13T10:37:20;6.40;99.90
10678;DHT22;5387;48.722;9.110;2023-02-13T10:39:51;6.50;99.90
10678;DHT22;5387;48.722;9.110;2023-02-13T10:42:21;6.40;99.90
10678;DHT22;5387;48.722;9.110;2023-02-13T10:45:18;6.30;99.90
10678;DHT22;5387;48.722;9.110;2023-02-13T10:47:57;6.30;99.90
10678;DHT22;5387;48.722;9.110;2023-02-13T10:50:36;6.30;99.90
10678;DHT22;5387;48.722;9.110;2023-02-13T10:53:12;6.50;99.90
10678;DHT22;5387;48.722;9.110;2023-02-13T10:55:55;6.50;99.90
10678;DHT22;5387;48.722;9.110;2023-02-13T10:58:34;6.60;99.90
10678;DHT22;5387;48.722;9.110;2023-02-13T11:01:07;6.60;99.90
10678;DHT22;5387;48.722;9.110;2023-02-13T11:03:35;6.70;99.90
10678;DHT22;5387;48.722;9.110;2023-02-13T11:06:05;6.80;99.90
10678;DHT22;5387;48.722;9.110;2023-02-13T11:08:34;6.70;99.90
10678;DHT22;5387;48.722;9.110;2023-02-13T11:11:03;6.80;99.90
10678;DHT22;5387;48.722;9.110;2023-02-13T11:14:07;6.90;99.90
10678;DHT22;5387;48.722;9.110;2023-02-13T11:16:46;6.90;99.90
10678;DHT22;5387;48.722;9.110;2023-02-13T11:19:19;7.00;99.90
10678;DHT22;5387;48.722;9.110;2023-02-13T11:21:53;6.90;99.90
10678;DHT22;5387;48.722;9.110;2023-02-13T11:24:22;6.90;99.90
10678;DHT22;5387;48.722;9.110;2023-02-13T11:26:52;7.10;99.90
10678;DHT22;5387;48.722;9.110;2023-02-13T11:29:23;7.30;99.90
10678;DHT22;5387;48.722;9.110;2023-02-13T11:32:08;7.50;99.90
10678;DHT22;5387;48.722;9.110;2023-02-13T11:34:42;7.80;99.90
10678;DHT22;5387;48.722;9.110;2023-02-13T11:37:19;8.10;99.90
10678;DHT22;5387;48.722;9.110;2023-02-13T11:39:48;8.40;99.90
10678;DHT22;5387;48.722;9.110;2023-02-13T11:42:18;8.80;99.90
10678;DHT22;5387;48.722;9.110;2023-02-13T11:44:50;9.10;99.90
10678;DHT22;5387;48.722;9.110;2023-02-13T11:47:29;9.20;99.90
10678;DHT22;5387;48.722;9.110;2023-02-13T11:49:58;9.10;99.90
10678;DHT22;5387;48.722;9.110;2023-02-13T11:52:28;8.80;99.90
10678;DHT22;5387;48.722;9.110;2023-02-13T11:54:57;8.80;99.90
10678;DHT22;5387;48.722;9.110;2023-02-13T11:57:28;8.90;99.90
10678;DHT22;5387;48.722;9.110;2023-02-13T11:59:57;8.80;99.90
10678;DHT22;5387;48.722;9.110;2023-02-13T12:02:25;8.50;99.90
10678;DHT22;5387;48.722;9.110;2023-02-13T12:04:54;8.50;99.90
10678;DHT22;5387;48.722;9.110;2023-02-13T12:07:23;8.40;99.90
10678;DHT22;5387;48.722;9.110;2023-02-13T12:09:59;8.60;99.90
10678;DHT22;5387;48.722;9.110;2023-02-13T12:12:31;8.60;99.90
10678;DHT22;5387;48.722;9.110;2023-02-13T12:15:02;8.70;99.90
10678;DHT22;5387;48.722;9.110;2023-02-13T12:17:34;8.90;99.90
10678;DHT22;5387;48.722;9.110;2023-02-13T12:20:01;8.80;99.90
10678;DHT22;5387;48.722;9.110;2023-02-13T12:22:31;8.70;99.90
10678;DHT22;5387;48.722;9.110;2023-02-13T12:25:18;8.40;99.90
10678;DHT22;5387;48.722;9.110;2023-02-13T12:27:59;8.50;99.90
10678;DHT22;5387;48.722;9.110;2023-02-13T12:34:11;8.60;99.90
10678;DHT22;5387;48.722;9.110;2023-02-13T12:36:49;8.90;99.90
10678;DHT22;5387;48.722;9.110;2023-02-13T12:39:25;8.90;99.90
10678;DHT22;5387;48.722;9.110;2023-02-13T12:42:11;8.90;99.90
10678;DHT22;5387;48.722;9.110;2023-02-13T12:44:56;9.10;99.90
10678;DHT22;5387;48.722;9.110;2023-02-13T12:47:29;8.80;99.90
10678;DHT22;5387;48.722;9.110;2023-02-13T12:50:15;8.70;99.90
10678;DHT22;5387;48.722;9.110;2023-02-13T12:52:55;8.60;99.90
10678;DHT22;5387;48.722;9.110;2023-02-13T12:55:50;8.70;99.90
10678;DHT22;5387;48.722;9.110;2023-02-13T12:58:56;8.90;99.90
10678;DHT22;5387;48.722;9.110;2023-02-13T13:04:30;8.60;99.90
10678;DHT22;5387;48.722;9.110;2023-02-13T13:10:23;8.50;99.90
10678;DHT22;5387;48.722;9.110;2023-02-13T13:12:56;8.30;99.90
10678;DHT22;5387;48.722;9.110;2023-02-13T13:15:31;8.40;99.90
10678;DHT22;5387;48.722;9.110;2023-02-13T13:18:08;8.60;99.90
10678;DHT22;5387;48.722;9.110;2023-02-13T13:20:50;8.50;99.90
10678;DHT22;5387;48.722;9.110;2023-02-13T13:23:20;8.60;99.90
10678;DHT22;5387;48.722;9.110;2023-02-13T13:25:56;8.60;99.90
10678;DHT22;5387;48.722;9.110;2023-02-13T13:28:32;8.60;99.90
10678;DHT22;5387;48.722;9.110;2023-02-13T13:31:02;8.50;99.90
10678;DHT22;5387;48.722;9.110;2023-02-13T13:33:30;8.60;99.90
10678;DHT22;5387;48.722;9.110;2023-02-13T13:36:04;8.70;99.90
10678;DHT22;5387;48.722;9.110;2023-02-13T13:38:41;8.80;99.90
10678;DHT22;5387;48.722;9.110;2023-02-13T13:41:14;8.80;99.90
10678;DHT22;5387;48.722;9.110;2023-02-13T13:43:56;8.90;99.90
10678;DHT22;5387;48.722;9.110;2023-02-13T13:46:32;8.90;99.90
10678;DHT22;5387;48.722;9.110;2023-02-13T13:49:13;8.80;99.90
10678;DHT22;5387;48.722;9.110;2023-02-13T13:51:43;8.50;99.90
10678;DHT22;5387;48.722;9.110;2023-02-13T13:54:24;8.50;99.90
10678;DHT22;5387;48.722;9.110;2023-02-13T13:57:08;8.50;99.90
10678;DHT22;5387;48.722;9.110;2023-02-13T13:59:57;8.50;99.90
10678;DHT22;5387;48.722;9.110;2023-02-13T14:02:41;8.40;99.90
10678;DHT22;5387;48.722;9.110;2023-02-13T14:05:27;8.30;99.90
10678;DHT22;5387;48.722;9.110;2023-02-13T14:07:56;8.20;99.90
10678;DHT22;5387;48.722;9.110;2023-02-13T14:10:59;8.30;99.90
10678;DHT22;5387;48.722;9.110;2023-02-13T14:13:31;8.30;99.90
10678;DHT22;5387;48.722;9.110;2023-02-13T14:15:59;8.40;99.90
10678;DHT22;5387;48.722;9.110;2023-02-13T14:18:28;8.30;99.90
10678;DHT22;5387;48.722;9.110;2023-02-13T14:20:57;8.20;99.90
10678;DHT22;5387;48.722;9.110;2023-02-13T14:23:31;8.20;99.90
10678;DHT22;5387;48.722;9.110;2023-02-13T14:26:28;8.20;99.90
10678;DHT22;5387;48.722;9.110;2023-02-13T14:29:21;8.30;99.90
10678;DHT22;5387;48.722;9.110;2023-02-13T14:32:01;8.30;99.90
10678;DHT22;5387;48.722;9.110;2023-02-13T14:34:32;8.30;99.90
10678;DHT22;5387;48.722;9.110;2023-02-13T14:37:15;8.20;99.90
10678;DHT22;5387;48.722;9.110;2023-02-13T14:40:25;8.10;99.90
10678;DHT22;5387;48.722;9.110;2023-02-13T14:42:56;8.10;99.90
10678;DHT22;5387;48.722;9.110;2023-02-13T14:45:27;8.10;99.90
10678;DHT22;5387;48.722;9.110;2023-02-13T14:47:56;8.10;99.90
10678;DHT22;5387;48.722;9.110;2023-02-13T14:50:27;8.00;99.90
10678;DHT22;5387;48.722;9.110;2023-02-13T14:52:56;7.90;99.90
10678;DHT22;5387;48.722;9.110;2023-02-13T14:55:31;7.90;99.90
10678;DHT22;5387;48.722;9.110;2023-02-13T14:58:05;8.00;99.90
10678;DHT22;5387;48.722;9.110;2023-02-13T15:00:37;8.00;99.90
10678;DHT22;5387;48.722;9.110;2023-02-13T15:03:18;8.10;99.90
10678;DHT22;5387;48.722;9.110;2023-02-13T15:05:51;8.00;99.90
10678;DHT22;5387;48.722;9.110;2023-02-13T15:08:20;8.00;99.90
10678;DHT22;5387;48.722;9.110;2023-02-13T15:10:48;7.90;99.90
10678;DHT22;5387;48.722;9.110;2023-02-13T15:13:17;7.80;99.90
10678;DHT22;5387;48.722;9.110;2023-02-13T15:15:51;7.80;99.90
10678;DHT22;5387;48.722;9.110;2023-02-13T15:18:20;7.90;99.90
10678;DHT22;5387;48.722;9.110;2023-02-13T15:20:52;7.90;99.90
10678;DHT22;5387;48.722;9.110;2023-02-13T15:23:22;7.90;99.90
10678;DHT22;5387;48.722;9.110;2023-02-13T15:25:56;7.90;99.90
10678;DHT22;5387;48.722;9.110;2023-02-13T15:28:23;7.80;99.90
10678;DHT22;5387;48.722;9.110;2023-02-13T15:30:56;7.80;99.90
10678;DHT22;5387;48.722;9.110;2023-02-13T15:33:25;7.80;99.90
10678;DHT22;5387;48.722;9.110;2023-02-13T15:35:59;7.80;99.90
10678;DHT22;5387;48.722;9.110;2023-02-13T15:38:28;7.70;99.90
10678;DHT22;5387;48.722;9.110;2023-02-13T15:40:58;7.60;99.90
10678;DHT22;5387;48.722;9.110;2023-02-13T15:43:33;7.50;99.90
10678;DHT22;5387;48.722;9.110;2023-02-13T15:46:03;7.50;99.90
10678;DHT22;5387;48.722;9.110;2023-02-13T15:48:32;7.30;99.90
10678;DHT22;5387;48.722;9.110;2023-02-13T15:51:02;7.20;99.90
10678;DHT22;5387;48.722;9.110;2023-02-13T15:53:29;7.20;99.90
10678;DHT22;5387;48.722;9.110;2023-02-13T15:55:59;7.10;99.90
10678;DHT22;5387;48.722;9.110;2023-02-13T15:58:29;7.00;99.90
10678;DHT22;5387;48.722;9.110;2023-02-13T16:01:01;6.90;99.90
10678;DHT22;5387;48.722;9.110;2023-02-13T16:03:29;6.70;99.90
10678;DHT22;5387;48.722;9.110;2023-02-13T16:05:57;6.70;99.90
10678;DHT22;5387;48.722;9.110;2023-02-13T16:08:28;6.70;99.90
10678;DHT22;5387;48.722;9.110;2023-02-13T16:11:16;6.60;99.90
10678;DHT22;5387;48.722;9.110;2023-02-13T16:13:56;6.60;99.90
10678;DHT22;5387;48.722;9.110;2023-02-13T16:16:24;6.40;99.90
10678;DHT22;5387;48.722;9.110;2023-02-13T16:18:52;6.30;99.90
10678;DHT22;5387;48.722;9.110;2023-02-13T16:21:21;6.10;99.90
10678;DHT22;5387;48.722;9.110;2023-02-13T16:23:50;6.00;99.90
10678;DHT22;5387;48.722;9.110;2023-02-13T16:26:18;5.90;99.90
10678;DHT22;5387;48.722;9.110;2023-02-13T16:28:46;6.00;99.90
10678;DHT22;5387;48.722;9.110;2023-02-13T16:31:14;5.80;99.90
10678;DHT22;5387;48.722;9.110;2023-02-13T16:33:43;5.80;99.90
10678;DHT22;5387;48.722;9.110;2023-02-13T16:36:23;5.60;99.90
10678;DHT22;5387;48.722;9.110;2023-02-13T16:38:53;5.40;99.90
10678;DHT22;5387;48.722;9.110;2023-02-13T16:41:29;5.40;99.90